Saint Clairsville, Pennsylvania
Current Conditions -  °F | °C
As of 12:53 AM on Tuesday 27 Jan 2015 (Local Time) from KAOO Reporting Station
Haze Haze  
Wind Chill: 19°   Ceiling: 9500
Heat Index: 19°   Visibility: 6mi
Dew Point: 18°   Wind: 3mph
Humidity: 96%   Direction: 280°W
Pressure: 29.74"   Gusts: NA
Location:  40.1591°N, 78.5079°W
Report Text: KAOO 270553Z AUTO 28003KT 6SM BR FEW021 OVC095 M07/M08 A2974 RMK AO2 SNE36 SLP096 P0001 60005 T10721078 11061 21078 58007
Loading
Personal Weather Stations






























Interactive Weather Map New forecast layout! Learn more

10-Day Weather Forecast

Advertisements
Track Severe Weather on mobile